createdAt,value
2018-03-28T00:01:24.766Z,40.83
2018-03-28T00:03:53.759Z,40.83
2018-03-28T00:06:22.712Z,34.53
2018-03-28T00:08:50.970Z,42.07
2018-03-28T00:11:19.157Z,39.37
2018-03-28T00:13:47.348Z,39.00
2018-03-28T00:16:15.558Z,34.20
2018-03-28T00:18:44.510Z,33.27
2018-03-28T00:21:12.765Z,39.17
2018-03-28T00:23:40.966Z,38.90
2018-03-28T00:26:26.359Z,37.90
2018-03-28T00:29:24.550Z,41.10
2018-03-28T00:31:53.544Z,36.37
2018-03-28T00:34:22.512Z,30.50
2018-03-28T00:42:51.661Z,33.97
2018-03-28T00:45:27.112Z,33.57
2018-03-28T00:48:23.987Z,32.47
2018-03-28T00:59:53.255Z,36.63
2018-03-28T01:05:21.971Z,38.87
2018-03-28T01:08:18.232Z,36.50
2018-03-28T01:16:46.362Z,33.43
2018-03-28T01:19:15.353Z,38.03
2018-03-28T01:27:47.414Z,27.93
2018-03-28T01:30:25.335Z,34.97
2018-03-28T01:33:24.083Z,36.33
2018-03-28T01:38:53.951Z,38.60
2018-03-28T01:41:26.022Z,35.87
2018-03-28T01:43:54.269Z,34.40
2018-03-28T01:46:25.691Z,30.30
2018-03-28T01:48:53.939Z,33.70
2018-03-28T01:51:22.906Z,33.27
2018-03-28T01:56:52.780Z,36.10
2018-03-28T01:59:26.781Z,34.87
2018-03-28T02:01:55.232Z,35.70
2018-03-28T02:07:27.031Z,36.30
2018-03-28T02:09:56.046Z,34.50
2018-03-28T02:12:24.228Z,34.83
2018-03-28T02:14:52.412Z,31.07
2018-03-28T02:17:26.965Z,33.67
2018-03-28T02:19:55.142Z,34.00
2018-03-28T02:22:23.322Z,34.17
2018-03-28T02:27:51.521Z,34.90
2018-03-28T02:30:19.764Z,30.73
2018-03-28T02:38:46.163Z,33.87
2018-03-28T02:41:15.703Z,33.17
2018-03-28T02:43:43.953Z,33.67
2018-03-28T02:46:25.918Z,32.33
2018-03-28T02:49:23.942Z,33.50
2018-03-28T02:51:52.120Z,30.10
2018-03-28T02:54:20.354Z,29.30
2018-03-28T02:56:48.535Z,29.07
2018-03-28T02:59:17.474Z,34.20
2018-03-28T03:01:45.700Z,36.40
2018-03-28T03:04:14.648Z,32.00
2018-03-28T03:06:42.868Z,35.00
2018-03-28T03:09:11.068Z,25.87
2018-03-28T03:11:39.245Z,35.77
2018-03-28T03:14:24.910Z,36.67
2018-03-28T03:19:53.192Z,31.50
2018-03-28T03:25:25.809Z,38.00
2018-03-28T03:27:53.984Z,35.00
2018-03-28T03:30:22.170Z,32.93
2018-03-28T03:35:51.432Z,32.97
2018-03-28T03:38:25.793Z,35.47
2018-03-28T03:40:54.042Z,28.23
2018-03-28T03:43:23.018Z,30.63
2018-03-28T03:45:51.191Z,31.40
2018-03-28T03:48:19.395Z,36.40
2018-03-28T03:50:48.363Z,33.57
2018-03-28T03:53:16.554Z,32.63
2018-03-28T03:55:44.808Z,32.00
2018-03-28T03:58:12.998Z,34.37
2018-03-28T04:00:41.949Z,33.30
2018-03-28T04:03:10.173Z,33.77
2018-03-28T04:05:38.353Z,28.27
2018-03-28T04:08:06.555Z,24.47
2018-03-28T04:10:34.740Z,25.60
2018-03-28T04:13:24.404Z,33.67
2018-03-28T04:15:52.584Z,33.43
2018-03-28T04:18:20.773Z,32.93
2018-03-28T04:20:49.006Z,34.60
2018-03-28T04:23:17.183Z,22.60
2018-03-28T04:25:45.364Z,34.37
2018-03-28T04:28:13.602Z,32.77
2018-03-28T04:30:42.548Z,35.30
2018-03-28T04:33:10.732Z,36.77
2018-03-28T04:35:38.964Z,32.80
2018-03-28T04:38:26.905Z,30.70
2018-03-28T04:40:55.128Z,26.40
2018-03-28T04:43:24.071Z,24.27
2018-03-28T04:45:52.289Z,29.03
2018-03-28T04:48:20.480Z,25.67
2018-03-28T04:50:49.475Z,26.20
2018-03-28T04:53:18.666Z,24.20
2018-03-28T04:55:46.880Z,22.40
2018-03-28T04:58:15.087Z,23.57
2018-03-28T05:00:43.273Z,28.30
2018-03-28T05:03:11.502Z,23.60
2018-03-28T05:05:39.684Z,31.50
2018-03-28T05:08:08.026Z,23.67
2018-03-28T05:10:37.002Z,23.90
2018-03-28T05:13:05.966Z,23.47
2018-03-28T05:15:34.176Z,28.00
2018-03-28T05:18:03.116Z,25.63
2018-03-28T05:20:31.350Z,24.10
2018-03-28T05:23:00.290Z,24.07
2018-03-28T05:25:28.472Z,24.33
2018-03-28T05:27:56.692Z,29.87
2018-03-28T05:30:25.631Z,26.10
2018-03-28T05:32:53.834Z,28.70
2018-03-28T05:35:22.852Z,31.80
2018-03-28T05:37:51.036Z,26.67
2018-03-28T05:40:19.220Z,30.33
2018-03-28T05:42:47.516Z,28.50
2018-03-28T05:45:15.679Z,31.50
2018-03-28T05:47:43.884Z,31.23
2018-03-28T05:50:12.053Z,21.77
2018-03-28T05:52:40.264Z,30.40
2018-03-28T05:55:08.447Z,23.60
2018-03-28T05:57:36.888Z,24.70
2018-03-28T06:00:05.055Z,32.93
2018-03-28T06:02:33.232Z,25.07
2018-03-28T06:08:25.928Z,36.20
2018-03-28T06:11:24.378Z,25.00
2018-03-28T06:23:24.045Z,30.57
2018-03-28T06:43:55.246Z,37.37
2018-03-28T06:46:26.775Z,31.57
2018-03-28T06:49:24.227Z,30.13
2018-03-28T06:54:53.576Z,37.73
2018-03-28T06:57:21.751Z,24.60
2018-03-28T06:59:49.968Z,23.67
2018-03-28T07:02:25.531Z,41.17
2018-03-28T07:05:24.237Z,37.50
2018-03-28T07:20:25.177Z,35.97
2018-03-28T07:26:24.225Z,44.97
2018-03-28T07:31:52.352Z,42.10
2018-03-28T07:34:21.446Z,32.77
2018-03-28T07:36:49.643Z,42.17
2018-03-28T07:39:17.820Z,29.57
2018-03-28T08:24:24.181Z,38.43
2018-03-28T08:30:24.121Z,49.27
2018-03-28T08:42:25.812Z,50.70
2018-03-28T08:54:25.000Z,47.93
2018-03-28T09:00:23.959Z,33.63
2018-03-28T09:27:24.347Z,48.93
2018-03-28T09:36:24.956Z,46.80
2018-03-28T10:00:24.403Z,43.73
2018-03-28T10:15:25.895Z,47.93
2018-03-28T10:18:24.909Z,50.03
2018-03-28T10:36:23.915Z,48.77
2018-03-28T10:45:24.457Z,49.10
2018-03-28T10:54:24.324Z,49.53
2018-03-28T11:09:24.720Z,49.20
2018-03-28T11:30:24.255Z,44.90
2018-03-28T11:45:24.376Z,44.27
2018-03-28T11:54:24.402Z,34.93
2018-03-28T12:06:24.491Z,42.57
2018-03-28T12:23:53.940Z,40.30
2018-03-28T12:26:28.196Z,39.87
2018-03-28T12:29:24.943Z,41.50
2018-03-28T12:41:24.419Z,39.10
2018-03-28T13:02:26.686Z,28.20
2018-03-28T13:05:25.463Z,37.60
2018-03-28T13:07:54.458Z,36.80
2018-03-28T13:16:27.506Z,32.50
2018-03-28T13:22:24.804Z,37.27
2018-03-28T13:27:26.800Z,35.97
2018-03-28T13:35:57.134Z,27.60
2018-03-28T13:38:25.957Z,26.33
2018-03-28T13:44:25.640Z,31.90
2018-03-28T13:46:53.849Z,23.87
2018-03-28T13:49:26.222Z,29.83
2018-03-28T14:19:25.488Z,33.07
2018-03-28T14:40:24.424Z,34.70
2018-03-28T15:08:50.992Z,25.77
2018-03-28T15:26:26.060Z,34.07
2018-03-28T15:38:25.158Z,34.30
2018-03-28T15:44:24.781Z,39.07
2018-03-28T15:46:53.042Z,37.10
2018-03-28T15:52:28.524Z,37.00
2018-03-28T16:01:25.041Z,38.57
2018-03-28T16:40:02.688Z,38.00
2018-03-28T16:42:31.687Z,40.47
2018-03-28T16:44:59.905Z,40.70
2018-03-28T16:47:28.166Z,41.50
2018-03-28T16:52:58.115Z,41.47
2018-03-28T16:55:26.380Z,33.37
2018-03-28T16:57:54.596Z,35.87
2018-03-28T17:00:22.927Z,36.30
2018-03-28T17:02:51.241Z,37.60
2018-03-28T17:05:19.464Z,43.17
2018-03-28T17:07:47.736Z,45.20
2018-03-28T17:13:17.211Z,46.13
2018-03-28T17:15:45.425Z,38.43
2018-03-28T17:18:13.657Z,47.03
2018-03-28T17:20:42.085Z,39.57
2018-03-28T17:23:10.299Z,41.33
2018-03-28T17:25:38.504Z,47.50
2018-03-28T17:28:07.525Z,41.53
2018-03-28T17:30:35.758Z,45.90
2018-03-28T17:33:04.021Z,46.87
2018-03-28T17:35:32.250Z,35.93
2018-03-28T17:38:00.506Z,47.30
2018-03-28T17:43:26.386Z,42.87
2018-03-28T17:48:54.685Z,44.80
2018-03-28T17:57:28.457Z,39.03
2018-03-28T17:59:56.692Z,40.77
2018-03-28T18:02:26.242Z,42.37
2018-03-28T18:10:56.671Z,45.13
2018-03-28T18:16:26.082Z,46.30
2018-03-28T18:27:56.009Z,41.77
2018-03-28T18:30:25.003Z,39.80
2018-03-28T18:32:54.050Z,43.57
2018-03-28T18:38:23.051Z,40.37
2018-03-28T18:40:51.419Z,45.20
2018-03-28T18:43:19.637Z,46.47
2018-03-28T18:45:47.859Z,47.70
2018-03-28T18:48:25.750Z,44.40
2018-03-28T18:50:53.971Z,47.23
2018-03-28T18:53:23.046Z,46.73
2018-03-28T18:55:51.266Z,47.23
2018-03-28T18:58:19.678Z,49.23
2018-03-28T19:00:47.911Z,46.17
2018-03-28T19:06:17.498Z,31.67
2018-03-28T19:08:45.737Z,46.13
2018-03-28T19:11:14.731Z,47.13
2018-03-28T19:13:43.757Z,47.50
2018-03-28T19:19:13.406Z,44.87
2018-03-28T19:21:43.130Z,44.70
2018-03-28T19:24:11.691Z,48.17
2018-03-28T19:26:39.942Z,44.97
2018-03-28T19:35:09.803Z,42.13
2018-03-28T19:40:39.454Z,44.43
2018-03-28T19:43:08.514Z,42.23
2018-03-28T19:45:36.745Z,29.00
2018-03-28T19:48:05.040Z,44.87
2018-03-28T19:53:34.745Z,40.67
2018-03-28T19:56:02.980Z,41.47
2018-03-28T19:58:32.032Z,40.27
2018-03-28T20:01:01.254Z,40.60
2018-03-28T20:03:29.470Z,39.00
2018-03-28T20:05:57.703Z,37.30
2018-03-28T20:08:25.980Z,37.57
2018-03-28T20:13:54.169Z,39.30
2018-03-28T20:16:22.410Z,41.60
2018-03-28T20:18:50.630Z,36.03
2018-03-28T20:21:18.903Z,33.83
2018-03-28T20:23:47.123Z,38.00
2018-03-28T20:26:15.348Z,35.97
2018-03-28T20:28:43.612Z,36.43
2018-03-28T20:31:11.856Z,35.83
2018-03-28T20:36:40.821Z,33.93
2018-03-28T20:39:09.033Z,36.67
2018-03-28T20:41:37.245Z,28.73
2018-03-28T20:44:05.533Z,37.37
2018-03-28T20:49:34.084Z,36.47
2018-03-28T20:52:02.310Z,34.00
2018-03-28T20:54:30.534Z,34.63
2018-03-28T20:56:58.806Z,39.20
2018-03-28T20:59:27.875Z,38.37
2018-03-28T21:01:56.098Z,36.77
2018-03-28T21:04:25.134Z,40.57
2018-03-28T21:09:54.270Z,37.20
2018-03-28T21:12:22.491Z,38.73
2018-03-28T21:14:51.478Z,38.80
2018-03-28T21:17:20.497Z,39.10
2018-03-28T21:19:48.751Z,42.77
2018-03-28T21:22:17.743Z,40.33
2018-03-28T21:24:46.022Z,39.27
2018-03-28T21:27:14.279Z,40.57
2018-03-28T21:29:43.310Z,42.53
2018-03-28T21:32:11.544Z,39.00
2018-03-28T21:34:40.586Z,45.00
2018-03-28T21:37:08.818Z,39.90
2018-03-28T21:39:37.808Z,42.00
2018-03-28T21:42:06.816Z,42.80
2018-03-28T21:44:35.067Z,39.87
2018-03-28T21:47:03.338Z,42.47
2018-03-28T21:49:32.360Z,43.33
2018-03-28T21:52:01.376Z,42.33
2018-03-28T21:54:29.593Z,47.13
2018-03-28T21:56:57.821Z,45.80
2018-03-28T21:59:26.069Z,43.80
2018-03-28T22:01:55.052Z,44.40
2018-03-28T22:04:24.086Z,45.43
2018-03-28T22:06:52.311Z,46.27
2018-03-28T22:09:26.721Z,48.43
2018-03-28T22:11:54.956Z,50.13
2018-03-28T22:14:23.237Z,47.60
2018-03-28T22:16:51.453Z,42.00
2018-03-28T22:19:19.669Z,50.73
2018-03-28T22:21:47.920Z,45.20
2018-03-28T22:24:17.152Z,49.57
2018-03-28T22:26:45.421Z,49.73
2018-03-28T22:29:13.633Z,51.70
2018-03-28T22:31:41.879Z,51.60
2018-03-28T22:34:10.101Z,50.27
2018-03-28T22:36:39.068Z,56.80
2018-03-28T22:39:07.302Z,55.57
2018-03-28T22:41:35.553Z,55.50
2018-03-28T22:44:04.528Z,57.50
2018-03-28T22:46:32.780Z,57.47
2018-03-28T22:49:01.050Z,54.33
2018-03-28T22:51:29.305Z,59.90
2018-03-28T22:53:57.522Z,58.33
2018-03-28T22:56:25.736Z,59.13
2018-03-28T22:58:54.764Z,59.20
2018-03-28T23:01:22.981Z,59.13
2018-03-28T23:03:51.225Z,57.43
2018-03-28T23:06:19.483Z,58.80
2018-03-28T23:08:47.711Z,58.43
2018-03-28T23:11:16.732Z,60.43
2018-03-28T23:13:45.030Z,56.33
2018-03-28T23:16:13.241Z,55.20
2018-03-28T23:21:42.388Z,51.43
2018-03-28T23:24:11.596Z,54.97
2018-03-28T23:26:39.851Z,51.87
2018-03-28T23:29:25.514Z,52.70
2018-03-28T23:31:54.564Z,52.57
2018-03-28T23:34:22.785Z,53.33
2018-03-28T23:36:51.081Z,53.23
2018-03-28T23:39:20.056Z,54.93
2018-03-28T23:41:48.280Z,54.23
2018-03-28T23:44:16.544Z,58.13
2018-03-28T23:46:44.878Z,55.20
2018-03-28T23:49:13.152Z,55.70
2018-03-28T23:51:41.368Z,54.93
2018-03-28T23:54:09.578Z,57.30
2018-03-28T23:56:38.013Z,55.27
2018-03-28T23:59:06.233Z,56.70
